sensor_id;sensor_type;location;lat;lon;timestamp;temperature;humidity
12043;DHT22;6082;49.306;12.862;2023-07-08T00:00:12;18.80;91.00
12043;DHT22;6082;49.306;12.862;2023-07-08T00:02:40;18.70;91.10
12043;DHT22;6082;49.306;12.862;2023-07-08T00:05:11;18.50;91.20
12043;DHT22;6082;49.306;12.862;2023-07-08T00:07:38;18.50;91.00
12043;DHT22;6082;49.306;12.862;2023-07-08T00:10:15;18.50;91.10
12043;DHT22;6082;49.306;12.862;2023-07-08T00:12:47;18.50;91.00
12043;DHT22;6082;49.306;12.862;2023-07-08T00:15:14;18.50;91.00
12043;DHT22;6082;49.306;12.862;2023-07-08T00:17:41;18.50;91.00
12043;DHT22;6082;49.306;12.862;2023-07-08T00:20:18;18.40;91.10
12043;DHT22;6082;49.306;12.862;2023-07-08T00:22:46;18.30;91.20
12043;DHT22;6082;49.306;12.862;2023-07-08T00:25:18;18.30;91.20
12043;DHT22;6082;49.306;12.862;2023-07-08T00:27:47;18.30;91.30
12043;DHT22;6082;49.306;12.862;2023-07-08T00:32:50;18.20;91.30
12043;DHT22;6082;49.306;12.862;2023-07-08T00:37:56;18.10;91.50
12043;DHT22;6082;49.306;12.862;2023-07-08T00:40:32;18.10;91.60
12043;DHT22;6082;49.306;12.862;2023-07-08T00:43:02;18.10;91.60
12043;DHT22;6082;49.306;12.862;2023-07-08T00:45:37;18.00;91.60
12043;DHT22;6082;49.306;12.862;2023-07-08T00:48:24;17.90;92.10
12043;DHT22;6082;49.306;12.862;2023-07-08T00:50:51;17.90;92.20
12043;DHT22;6082;49.306;12.862;2023-07-08T00:55:46;17.80;92.10
12043;DHT22;6082;49.306;12.862;2023-07-08T00:58:12;17.80;92.10
12043;DHT22;6082;49.306;12.862;2023-07-08T01:00:37;17.80;92.10
12043;DHT22;6082;49.306;12.862;2023-07-08T01:03:03;17.80;92.10
12043;DHT22;6082;49.306;12.862;2023-07-08T01:05:29;17.70;92.20
12043;DHT22;6082;49.306;12.862;2023-07-08T01:07:59;17.80;92.40
12043;DHT22;6082;49.306;12.862;2023-07-08T01:10:31;17.70;92.30
12043;DHT22;6082;49.306;12.862;2023-07-08T01:12:59;17.70;92.30
12043;DHT22;6082;49.306;12.862;2023-07-08T01:15:38;17.70;92.60
12043;DHT22;6082;49.306;12.862;2023-07-08T01:18:05;17.60;92.60
12043;DHT22;6082;49.306;12.862;2023-07-08T01:20:32;17.60;92.60
12043;DHT22;6082;49.306;12.862;2023-07-08T01:22:59;17.60;92.60
12043;DHT22;6082;49.306;12.862;2023-07-08T01:25:25;17.50;92.50
12043;DHT22;6082;49.306;12.862;2023-07-08T01:27:57;17.50;92.70
12043;DHT22;6082;49.306;12.862;2023-07-08T01:30:23;17.40;92.70
12043;DHT22;6082;49.306;12.862;2023-07-08T01:32:52;17.40;92.70
12043;DHT22;6082;49.306;12.862;2023-07-08T01:35:21;17.40;92.90
12043;DHT22;6082;49.306;12.862;2023-07-08T01:38:01;17.30;92.80
12043;DHT22;6082;49.306;12.862;2023-07-08T01:40:34;17.30;92.80
12043;DHT22;6082;49.306;12.862;2023-07-08T01:43:02;17.30;92.90
12043;DHT22;6082;49.306;12.862;2023-07-08T01:45:31;17.30;92.90
12043;DHT22;6082;49.306;12.862;2023-07-08T01:48:02;17.30;93.10
12043;DHT22;6082;49.306;12.862;2023-07-08T01:50:29;17.20;93.10
12043;DHT22;6082;49.306;12.862;2023-07-08T01:52:58;17.20;93.30
12043;DHT22;6082;49.306;12.862;2023-07-08T01:55:25;17.20;93.30
12043;DHT22;6082;49.306;12.862;2023-07-08T01:57:52;17.10;93.40
12043;DHT22;6082;49.306;12.862;2023-07-08T02:00:19;17.00;93.50
12043;DHT22;6082;49.306;12.862;2023-07-08T02:02:45;17.10;93.70
12043;DHT22;6082;49.306;12.862;2023-07-08T02:05:10;17.00;93.70
12043;DHT22;6082;49.306;12.862;2023-07-08T02:07:36;16.90;93.60
12043;DHT22;6082;49.306;12.862;2023-07-08T02:10:02;16.90;93.70
12043;DHT22;6082;49.306;12.862;2023-07-08T02:12:28;16.80;93.90
12043;DHT22;6082;49.306;12.862;2023-07-08T02:14:53;16.80;94.30
12043;DHT22;6082;49.306;12.862;2023-07-08T02:17:19;16.80;94.30
12043;DHT22;6082;49.306;12.862;2023-07-08T02:19:45;16.70;94.20
12043;DHT22;6082;49.306;12.862;2023-07-08T02:22:10;16.70;94.30
12043;DHT22;6082;49.306;12.862;2023-07-08T02:24:36;16.70;94.30
12043;DHT22;6082;49.306;12.862;2023-07-08T02:27:02;16.70;94.40
12043;DHT22;6082;49.306;12.862;2023-07-08T02:29:28;16.60;94.30
12043;DHT22;6082;49.306;12.862;2023-07-08T02:31:54;16.60;94.30
12043;DHT22;6082;49.306;12.862;2023-07-08T02:34:20;16.60;94.30
12043;DHT22;6082;49.306;12.862;2023-07-08T02:36:46;16.60;94.30
12043;DHT22;6082;49.306;12.862;2023-07-08T02:39:12;16.60;94.30
12043;DHT22;6082;49.306;12.862;2023-07-08T02:41:38;16.60;94.30
12043;DHT22;6082;49.306;12.862;2023-07-08T02:44:04;16.60;94.30
12043;DHT22;6082;49.306;12.862;2023-07-08T02:46:30;16.60;94.50
12043;DHT22;6082;49.306;12.862;2023-07-08T02:48:56;16.60;94.50
12043;DHT22;6082;49.306;12.862;2023-07-08T02:51:21;16.60;94.50
12043;DHT22;6082;49.306;12.862;2023-07-08T02:53:49;16.50;94.70
12043;DHT22;6082;49.306;12.862;2023-07-08T02:56:15;16.50;94.80
12043;DHT22;6082;49.306;12.862;2023-07-08T02:58:41;16.50;94.90
12043;DHT22;6082;49.306;12.862;2023-07-08T03:01:07;16.50;94.90
12043;DHT22;6082;49.306;12.862;2023-07-08T03:03:34;16.50;95.00
12043;DHT22;6082;49.306;12.862;2023-07-08T03:06:04;16.40;95.00
12043;DHT22;6082;49.306;12.862;2023-07-08T03:08:33;16.50;95.10
12043;DHT22;6082;49.306;12.862;2023-07-08T03:11:02;16.40;95.10
12043;DHT22;6082;49.306;12.862;2023-07-08T03:13:29;16.40;95.30
12043;DHT22;6082;49.306;12.862;2023-07-08T03:15:56;16.40;95.30
12043;DHT22;6082;49.306;12.862;2023-07-08T03:18:22;16.40;95.30
12043;DHT22;6082;49.306;12.862;2023-07-08T03:20:49;16.40;95.50
12043;DHT22;6082;49.306;12.862;2023-07-08T03:23:15;16.40;95.60
12043;DHT22;6082;49.306;12.862;2023-07-08T03:25:41;16.40;95.80
12043;DHT22;6082;49.306;12.862;2023-07-08T03:28:08;16.30;95.80
12043;DHT22;6082;49.306;12.862;2023-07-08T03:30:40;16.30;95.90
12043;DHT22;6082;49.306;12.862;2023-07-08T03:33:07;16.30;96.10
12043;DHT22;6082;49.306;12.862;2023-07-08T03:35:33;16.20;96.00
12043;DHT22;6082;49.306;12.862;2023-07-08T03:37:58;16.20;96.00
12043;DHT22;6082;49.306;12.862;2023-07-08T03:40:24;16.20;96.20
12043;DHT22;6082;49.306;12.862;2023-07-08T03:42:50;16.10;96.50
12043;DHT22;6082;49.306;12.862;2023-07-08T03:45:16;16.10;96.40
12043;DHT22;6082;49.306;12.862;2023-07-08T03:47:42;16.10;96.50
12043;DHT22;6082;49.306;12.862;2023-07-08T03:50:19;16.00;96.80
12043;DHT22;6082;49.306;12.862;2023-07-08T03:52:45;16.00;96.90
12043;DHT22;6082;49.306;12.862;2023-07-08T03:55:12;16.00;96.70
12043;DHT22;6082;49.306;12.862;2023-07-08T03:57:37;16.00;96.70
12043;DHT22;6082;49.306;12.862;2023-07-08T04:00:04;16.00;96.90
12043;DHT22;6082;49.306;12.862;2023-07-08T04:02:30;16.00;97.00
12043;DHT22;6082;49.306;12.862;2023-07-08T04:04:55;16.00;97.00
12043;DHT22;6082;49.306;12.862;2023-07-08T04:07:21;16.00;97.50
12043;DHT22;6082;49.306;12.862;2023-07-08T04:09:47;16.00;98.60
12043;DHT22;6082;49.306;12.862;2023-07-08T04:12:15;15.90;98.70
12043;DHT22;6082;49.306;12.862;2023-07-08T04:14:41;15.90;98.40
12043;DHT22;6082;49.306;12.862;2023-07-08T04:17:09;15.90;98.40
12043;DHT22;6082;49.306;12.862;2023-07-08T04:19:35;15.90;98.10
12043;DHT22;6082;49.306;12.862;2023-07-08T04:22:02;16.00;98.10
12043;DHT22;6082;49.306;12.862;2023-07-08T04:24:28;16.00;98.10
12043;DHT22;6082;49.306;12.862;2023-07-08T04:26:54;16.00;98.00
12043;DHT22;6082;49.306;12.862;2023-07-08T04:29:21;16.00;98.00
12043;DHT22;6082;49.306;12.862;2023-07-08T04:31:47;16.00;98.00
12043;DHT22;6082;49.306;12.862;2023-07-08T04:34:14;16.00;97.90
12043;DHT22;6082;49.306;12.862;2023-07-08T04:36:40;16.00;97.90
12043;DHT22;6082;49.306;12.862;2023-07-08T04:39:07;16.10;98.20
12043;DHT22;6082;49.306;12.862;2023-07-08T04:41:36;16.10;98.30
12043;DHT22;6082;49.306;12.862;2023-07-08T04:44:06;16.10;98.00
12043;DHT22;6082;49.306;12.862;2023-07-08T04:49:08;16.10;98.00
12043;DHT22;6082;49.306;12.862;2023-07-08T04:51:41;16.10;97.80
12043;DHT22;6082;49.306;12.862;2023-07-08T04:54:07;16.20;97.80
12043;DHT22;6082;49.306;12.862;2023-07-08T04:56:38;16.20;97.80
12043;DHT22;6082;49.306;12.862;2023-07-08T04:59:07;16.20;97.70
12043;DHT22;6082;49.306;12.862;2023-07-08T05:01:33;16.20;97.70
12043;DHT22;6082;49.306;12.862;2023-07-08T05:03:59;16.30;98.30
12043;DHT22;6082;49.306;12.862;2023-07-08T05:06:25;16.40;99.90
12043;DHT22;6082;49.306;12.862;2023-07-08T05:08:51;16.40;99.90
12043;DHT22;6082;49.306;12.862;2023-07-08T05:11:17;16.40;99.90
12043;DHT22;6082;49.306;12.862;2023-07-08T05:13:43;16.50;99.90
12043;DHT22;6082;49.306;12.862;2023-07-08T05:16:08;16.50;99.90
12043;DHT22;6082;49.306;12.862;2023-07-08T05:18:34;16.50;99.90
12043;DHT22;6082;49.306;12.862;2023-07-08T05:21:00;16.60;99.90
12043;DHT22;6082;49.306;12.862;2023-07-08T05:23:26;16.70;99.90
12043;DHT22;6082;49.306;12.862;2023-07-08T05:25:52;16.70;99.90
12043;DHT22;6082;49.306;12.862;2023-07-08T05:28:19;16.80;99.90
12043;DHT22;6082;49.306;12.862;2023-07-08T05:30:47;16.90;99.90
12043;DHT22;6082;49.306;12.862;2023-07-08T05:33:13;17.00;99.90
12043;DHT22;6082;49.306;12.862;2023-07-08T05:35:39;17.00;99.90
12043;DHT22;6082;49.306;12.862;2023-07-08T05:38:04;17.00;99.90
12043;DHT22;6082;49.306;12.862;2023-07-08T05:40:30;17.10;99.90
12043;DHT22;6082;49.306;12.862;2023-07-08T05:42:56;17.20;99.90
12043;DHT22;6082;49.306;12.862;2023-07-08T05:45:21;17.30;99.90
12043;DHT22;6082;49.306;12.862;2023-07-08T05:47:47;17.30;99.90
12043;DHT22;6082;49.306;12.862;2023-07-08T05:50:13;17.40;99.90
12043;DHT22;6082;49.306;12.862;2023-07-08T05:52:39;17.50;99.90
12043;DHT22;6082;49.306;12.862;2023-07-08T05:55:05;17.60;99.90
12043;DHT22;6082;49.306;12.862;2023-07-08T05:57:30;17.70;99.90
12043;DHT22;6082;49.306;12.862;2023-07-08T05:59:56;17.80;99.90
12043;DHT22;6082;49.306;12.862;2023-07-08T06:02:22;17.80;99.90
12043;DHT22;6082;49.306;12.862;2023-07-08T06:04:51;17.90;99.90
12043;DHT22;6082;49.306;12.862;2023-07-08T06:07:17;18.10;99.90
12043;DHT22;6082;49.306;12.862;2023-07-08T06:09:43;18.20;99.90
12043;DHT22;6082;49.306;12.862;2023-07-08T06:12:10;18.30;99.90
12043;DHT22;6082;49.306;12.862;2023-07-08T06:14:36;18.50;99.90
12043;DHT22;6082;49.306;12.862;2023-07-08T06:17:03;18.50;99.90
12043;DHT22;6082;49.306;12.862;2023-07-08T06:19:28;18.70;99.90
12043;DHT22;6082;49.306;12.862;2023-07-08T06:21:54;18.80;99.90
12043;DHT22;6082;49.306;12.862;2023-07-08T06:24:20;18.90;99.90
12043;DHT22;6082;49.306;12.862;2023-07-08T06:26:46;19.00;99.90
12043;DHT22;6082;49.306;12.862;2023-07-08T06:29:12;19.10;99.90
12043;DHT22;6082;49.306;12.862;2023-07-08T06:31:38;19.30;99.90
12043;DHT22;6082;49.306;12.862;2023-07-08T06:34:04;19.40;99.20
12043;DHT22;6082;49.306;12.862;2023-07-08T06:36:31;19.60;99.90
12043;DHT22;6082;49.306;12.862;2023-07-08T06:38:56;19.70;99.10
12043;DHT22;6082;49.306;12.862;2023-07-08T06:41:22;19.90;99.10
12043;DHT22;6082;49.306;12.862;2023-07-08T06:43:48;20.00;98.00
12043;DHT22;6082;49.306;12.862;2023-07-08T06:46:14;20.20;98.20
12043;DHT22;6082;49.306;12.862;2023-07-08T06:48:39;20.30;97.60
12043;DHT22;6082;49.306;12.862;2023-07-08T06:51:06;20.40;97.60
12043;DHT22;6082;49.306;12.862;2023-07-08T06:53:32;20.60;97.80
12043;DHT22;6082;49.306;12.862;2023-07-08T06:55:57;20.60;98.30
12043;DHT22;6082;49.306;12.862;2023-07-08T06:58:23;20.80;97.50
12043;DHT22;6082;49.306;12.862;2023-07-08T07:00:49;21.00;97.60
12043;DHT22;6082;49.306;12.862;2023-07-08T07:03:15;21.10;96.60
12043;DHT22;6082;49.306;12.862;2023-07-08T07:05:40;21.10;97.10
12043;DHT22;6082;49.306;12.862;2023-07-08T07:08:06;21.30;96.70
12043;DHT22;6082;49.306;12.862;2023-07-08T07:10:33;21.30;97.60
12043;DHT22;6082;49.306;12.862;2023-07-08T07:12:59;21.50;95.80
12043;DHT22;6082;49.306;12.862;2023-07-08T07:15:25;21.60;96.20
12043;DHT22;6082;49.306;12.862;2023-07-08T07:17:51;21.70;96.00
12043;DHT22;6082;49.306;12.862;2023-07-08T07:20:16;21.80;95.70
12043;DHT22;6082;49.306;12.862;2023-07-08T07:22:42;21.80;95.80
12043;DHT22;6082;49.306;12.862;2023-07-08T07:25:08;22.00;95.40
12043;DHT22;6082;49.306;12.862;2023-07-08T07:27:34;22.20;95.40
12043;DHT22;6082;49.306;12.862;2023-07-08T07:30:00;22.20;94.60
12043;DHT22;6082;49.306;12.862;2023-07-08T07:32:26;22.40;95.00
12043;DHT22;6082;49.306;12.862;2023-07-08T07:34:52;22.50;94.20
12043;DHT22;6082;49.306;12.862;2023-07-08T07:37:20;22.60;94.00
12043;DHT22;6082;49.306;12.862;2023-07-08T07:39:46;22.70;94.30
12043;DHT22;6082;49.306;12.862;2023-07-08T07:42:13;22.80;93.60
12043;DHT22;6082;49.306;12.862;2023-07-08T07:44:39;23.00;93.90
12043;DHT22;6082;49.306;12.862;2023-07-08T07:47:06;23.10;93.10
12043;DHT22;6082;49.306;12.862;2023-07-08T07:49:32;23.10;93.00
12043;DHT22;6082;49.306;12.862;2023-07-08T07:51:58;23.20;93.40
12043;DHT22;6082;49.306;12.862;2023-07-08T07:54:30;23.40;92.30
12043;DHT22;6082;49.306;12.862;2023-07-08T07:56:55;23.50;92.10
12043;DHT22;6082;49.306;12.862;2023-07-08T07:59:21;23.50;92.30
12043;DHT22;6082;49.306;12.862;2023-07-08T08:01:47;23.60;91.90
12043;DHT22;6082;49.306;12.862;2023-07-08T08:04:13;23.70;91.00
12043;DHT22;6082;49.306;12.862;2023-07-08T08:06:39;23.80;91.60
12043;DHT22;6082;49.306;12.862;2023-07-08T08:09:06;24.00;91.90
12043;DHT22;6082;49.306;12.862;2023-07-08T08:11:32;24.10;92.20
12043;DHT22;6082;49.306;12.862;2023-07-08T08:13:59;24.20;91.90
12043;DHT22;6082;49.306;12.862;2023-07-08T08:16:25;24.40;90.70
12043;DHT22;6082;49.306;12.862;2023-07-08T08:18:51;24.40;90.40
12043;DHT22;6082;49.306;12.862;2023-07-08T08:21:17;24.50;90.10
12043;DHT22;6082;49.306;12.862;2023-07-08T08:23:43;24.60;89.70
12043;DHT22;6082;49.306;12.862;2023-07-08T08:26:08;24.70;90.60
12043;DHT22;6082;49.306;12.862;2023-07-08T08:28:34;24.80;89.00
12043;DHT22;6082;49.306;12.862;2023-07-08T08:31:00;24.90;87.90
12043;DHT22;6082;49.306;12.862;2023-07-08T08:33:26;25.00;90.00
12043;DHT22;6082;49.306;12.862;2023-07-08T08:35:52;25.00;87.60
12043;DHT22;6082;49.306;12.862;2023-07-08T08:38:20;25.20;85.80
12043;DHT22;6082;49.306;12.862;2023-07-08T08:40:46;25.30;86.10
12043;DHT22;6082;49.306;12.862;2023-07-08T08:43:23;25.40;86.10
12043;DHT22;6082;49.306;12.862;2023-07-08T08:51:26;25.70;81.40
12043;DHT22;6082;49.306;12.862;2023-07-08T08:53:56;25.80;79.90
12043;DHT22;6082;49.306;12.862;2023-07-08T08:56:25;26.00;79.10
12043;DHT22;6082;49.306;12.862;2023-07-08T08:59:06;26.10;77.50
12043;DHT22;6082;49.306;12.862;2023-07-08T09:01:33;26.10;76.20
12043;DHT22;6082;49.306;12.862;2023-07-08T09:04:08;26.10;78.00
12043;DHT22;6082;49.306;12.862;2023-07-08T09:06:39;26.10;76.40
12043;DHT22;6082;49.306;12.862;2023-07-08T09:09:18;26.20;77.40
12043;DHT22;6082;49.306;12.862;2023-07-08T09:11:48;26.20;73.00
12043;DHT22;6082;49.306;12.862;2023-07-08T09:14:29;26.20;72.70
12043;DHT22;6082;49.306;12.862;2023-07-08T09:17:24;26.20;73.30
12043;DHT22;6082;49.306;12.862;2023-07-08T09:22:57;26.40;74.30
12043;DHT22;6082;49.306;12.862;2023-07-08T09:25:56;26.50;72.50
12043;DHT22;6082;49.306;12.862;2023-07-08T09:28:19;26.60;73.10
12043;DHT22;6082;49.306;12.862;2023-07-08T09:30:48;26.80;73.20
12043;DHT22;6082;49.306;12.862;2023-07-08T09:33:15;26.90;71.40
12043;DHT22;6082;49.306;12.862;2023-07-08T09:35:44;26.90;69.50
12043;DHT22;6082;49.306;12.862;2023-07-08T09:38:16;27.00;68.60
12043;DHT22;6082;49.306;12.862;2023-07-08T09:40:52;27.00;68.50
12043;DHT22;6082;49.306;12.862;2023-07-08T09:43:49;27.20;70.70
12043;DHT22;6082;49.306;12.862;2023-07-08T09:46:16;27.40;65.60
12043;DHT22;6082;49.306;12.862;2023-07-08T09:48:42;27.30;66.80
12043;DHT22;6082;49.306;12.862;2023-07-08T09:51:08;27.30;70.80
12043;DHT22;6082;49.306;12.862;2023-07-08T09:53:35;27.30;68.50
12043;DHT22;6082;49.306;12.862;2023-07-08T09:56:03;27.30;68.70
12043;DHT22;6082;49.306;12.862;2023-07-08T09:58:33;27.30;69.90
12043;DHT22;6082;49.306;12.862;2023-07-08T10:01:05;27.30;68.60
12043;DHT22;6082;49.306;12.862;2023-07-08T10:03:34;27.40;71.00
12043;DHT22;6082;49.306;12.862;2023-07-08T10:06:05;27.50;65.00
12043;DHT22;6082;49.306;12.862;2023-07-08T10:08:41;27.60;61.10
12043;DHT22;6082;49.306;12.862;2023-07-08T10:11:35;27.40;65.30
12043;DHT22;6082;49.306;12.862;2023-07-08T10:14:11;27.40;63.10
12043;DHT22;6082;49.306;12.862;2023-07-08T10:16:38;27.50;63.10
12043;DHT22;6082;49.306;12.862;2023-07-08T10:19:16;27.60;64.50
12043;DHT22;6082;49.306;12.862;2023-07-08T10:22:10;27.70;63.70
12043;DHT22;6082;49.306;12.862;2023-07-08T10:38:02;28.10;63.30
12043;DHT22;6082;49.306;12.862;2023-07-08T10:40:53;28.20;61.70
12043;DHT22;6082;49.306;12.862;2023-07-08T10:43:48;28.30;63.50
12043;DHT22;6082;49.306;12.862;2023-07-08T11:02:45;28.70;60.60
12043;DHT22;6082;49.306;12.862;2023-07-08T11:08:23;28.70;60.60
12043;DHT22;6082;49.306;12.862;2023-07-08T11:10:51;28.70;62.90
12043;DHT22;6082;49.306;12.862;2023-07-08T11:13:20;28.70;61.90
12043;DHT22;6082;49.306;12.862;2023-07-08T11:21:18;29.10;58.00
12043;DHT22;6082;49.306;12.862;2023-07-08T11:23:50;29.00;58.10
12043;DHT22;6082;49.306;12.862;2023-07-08T11:26:29;29.10;61.30
12043;DHT22;6082;49.306;12.862;2023-07-08T11:29:00;29.10;62.00
12043;DHT22;6082;49.306;12.862;2023-07-08T11:31:29;29.30;57.90
12043;DHT22;6082;49.306;12.862;2023-07-08T11:33:57;29.30;57.90
12043;DHT22;6082;49.306;12.862;2023-07-08T11:36:23;29.20;57.50
12043;DHT22;6082;49.306;12.862;2023-07-08T11:38:53;29.10;59.90
12043;DHT22;6082;49.306;12.862;2023-07-08T11:41:21;29.20;60.80
12043;DHT22;6082;49.306;12.862;2023-07-08T11:44:03;29.40;55.80
12043;DHT22;6082;49.306;12.862;2023-07-08T11:46:33;29.60;58.10
12043;DHT22;6082;49.306;12.862;2023-07-08T11:49:05;29.60;58.60
12043;DHT22;6082;49.306;12.862;2023-07-08T11:51:39;29.70;59.30
12043;DHT22;6082;49.306;12.862;2023-07-08T11:59:24;30.00;58.00
12043;DHT22;6082;49.306;12.862;2023-07-08T12:04:33;30.30;55.60
12043;DHT22;6082;49.306;12.862;2023-07-08T12:12:29;30.20;56.40
12043;DHT22;6082;49.306;12.862;2023-07-08T12:15:04;30.20;55.50
12043;DHT22;6082;49.306;12.862;2023-07-08T12:17:30;30.20;55.30
12043;DHT22;6082;49.306;12.862;2023-07-08T12:20:02;30.20;54.30
12043;DHT22;6082;49.306;12.862;2023-07-08T12:22:29;30.20;55.80
12043;DHT22;6082;49.306;12.862;2023-07-08T12:24:54;30.30;55.00
12043;DHT22;6082;49.306;12.862;2023-07-08T12:27:24;30.20;55.20
12043;DHT22;6082;49.306;12.862;2023-07-08T12:29:50;30.20;55.70
12043;DHT22;6082;49.306;12.862;2023-07-08T12:32:16;30.30;55.40
12043;DHT22;6082;49.306;12.862;2023-07-08T12:34:42;30.30;54.60
12043;DHT22;6082;49.306;12.862;2023-07-08T12:37:12;30.30;53.50
12043;DHT22;6082;49.306;12.862;2023-07-08T12:39:38;30.40;52.70
12043;DHT22;6082;49.306;12.862;2023-07-08T12:42:09;30.30;55.30
12043;DHT22;6082;49.306;12.862;2023-07-08T12:44:36;30.40;55.30
12043;DHT22;6082;49.306;12.862;2023-07-08T12:47:07;30.50;52.80
12043;DHT22;6082;49.306;12.862;2023-07-08T12:49:33;30.50;54.20
12043;DHT22;6082;49.306;12.862;2023-07-08T12:51:59;30.40;53.70
12043;DHT22;6082;49.306;12.862;2023-07-08T12:54:27;30.40;53.40
12043;DHT22;6082;49.306;12.862;2023-07-08T12:56:54;30.50;53.30
12043;DHT22;6082;49.306;12.862;2023-07-08T12:59:22;30.60;55.60
12043;DHT22;6082;49.306;12.862;2023-07-08T13:01:49;30.70;57.10
12043;DHT22;6082;49.306;12.862;2023-07-08T13:04:16;30.70;54.80
12043;DHT22;6082;49.306;12.862;2023-07-08T13:06:44;30.70;53.80
12043;DHT22;6082;49.306;12.862;2023-07-08T13:11:54;30.90;53.80
12043;DHT22;6082;49.306;12.862;2023-07-08T13:14:22;30.90;53.20
12043;DHT22;6082;49.306;12.862;2023-07-08T13:16:49;31.00;54.50
12043;DHT22;6082;49.306;12.862;2023-07-08T13:19:15;31.10;55.80
12043;DHT22;6082;49.306;12.862;2023-07-08T13:21:41;31.10;54.50
12043;DHT22;6082;49.306;12.862;2023-07-08T13:24:09;31.00;55.70
12043;DHT22;6082;49.306;12.862;2023-07-08T13:26:36;31.00;55.70
12043;DHT22;6082;49.306;12.862;2023-07-08T13:29:14;31.00;55.60
12043;DHT22;6082;49.306;12.862;2023-07-08T13:31:52;30.90;55.60
12043;DHT22;6082;49.306;12.862;2023-07-08T13:34:20;30.90;54.90
12043;DHT22;6082;49.306;12.862;2023-07-08T13:36:50;30.80;54.00
12043;DHT22;6082;49.306;12.862;2023-07-08T13:39:27;30.80;52.60
12043;DHT22;6082;49.306;12.862;2023-07-08T13:41:55;30.70;50.00
12043;DHT22;6082;49.306;12.862;2023-07-08T13:44:21;30.70;51.20
12043;DHT22;6082;49.306;12.862;2023-07-08T13:49:29;30.60;48.90
12043;DHT22;6082;49.306;12.862;2023-07-08T13:52:16;30.60;50.00
12043;DHT22;6082;49.306;12.862;2023-07-08T13:55:02;30.60;49.20
12043;DHT22;6082;49.306;12.862;2023-07-08T13:57:38;30.60;48.50
12043;DHT22;6082;49.306;12.862;2023-07-08T14:00:05;30.50;50.70
12043;DHT22;6082;49.306;12.862;2023-07-08T14:02:33;30.50;49.20
12043;DHT22;6082;49.306;12.862;2023-07-08T14:05:00;30.50;50.50
12043;DHT22;6082;49.306;12.862;2023-07-08T14:07:31;30.50;51.20
12043;DHT22;6082;49.306;12.862;2023-07-08T14:09:57;30.50;51.60
12043;DHT22;6082;49.306;12.862;2023-07-08T14:12:23;30.50;52.20
12043;DHT22;6082;49.306;12.862;2023-07-08T14:14:49;30.50;50.80
12043;DHT22;6082;49.306;12.862;2023-07-08T14:17:45;30.50;52.70
12043;DHT22;6082;49.306;12.862;2023-07-08T14:20:16;30.50;52.30
12043;DHT22;6082;49.306;12.862;2023-07-08T14:22:41;30.70;53.20
12043;DHT22;6082;49.306;12.862;2023-07-08T14:25:09;30.60;51.60
12043;DHT22;6082;49.306;12.862;2023-07-08T14:27:35;30.70;52.80
12043;DHT22;6082;49.306;12.862;2023-07-08T14:30:01;30.80;51.90
12043;DHT22;6082;49.306;12.862;2023-07-08T14:32:29;30.90;52.30
12043;DHT22;6082;49.306;12.862;2023-07-08T14:34:59;31.00;52.60
12043;DHT22;6082;49.306;12.862;2023-07-08T14:37:26;31.20;52.50
12043;DHT22;6082;49.306;12.862;2023-07-08T14:39:51;31.30;52.90
12043;DHT22;6082;49.306;12.862;2023-07-08T14:42:18;31.30;52.70
12043;DHT22;6082;49.306;12.862;2023-07-08T14:44:46;31.50;51.70
12043;DHT22;6082;49.306;12.862;2023-07-08T14:47:15;31.50;49.50
12043;DHT22;6082;49.306;12.862;2023-07-08T14:49:41;31.50;50.60
12043;DHT22;6082;49.306;12.862;2023-07-08T14:52:07;31.60;51.40
12043;DHT22;6082;49.306;12.862;2023-07-08T14:54:34;31.60;50.40
12043;DHT22;6082;49.306;12.862;2023-07-08T14:57:00;31.60;50.80
12043;DHT22;6082;49.306;12.862;2023-07-08T14:59:30;31.80;52.40
12043;DHT22;6082;49.306;12.862;2023-07-08T15:01:58;31.80;49.90
12043;DHT22;6082;49.306;12.862;2023-07-08T15:04:24;31.90;48.70
12043;DHT22;6082;49.306;12.862;2023-07-08T15:06:54;31.90;48.60
12043;DHT22;6082;49.306;12.862;2023-07-08T15:09:20;31.90;50.20
12043;DHT22;6082;49.306;12.862;2023-07-08T15:11:46;32.00;50.80
12043;DHT22;6082;49.306;12.862;2023-07-08T15:14:23;32.00;51.10
12043;DHT22;6082;49.306;12.862;2023-07-08T15:16:50;31.90;47.90
12043;DHT22;6082;49.306;12.862;2023-07-08T15:19:20;31.80;46.80
12043;DHT22;6082;49.306;12.862;2023-07-08T15:21:46;31.70;47.10
12043;DHT22;6082;49.306;12.862;2023-07-08T15:24:13;31.60;47.40
12043;DHT22;6082;49.306;12.862;2023-07-08T15:26:42;31.60;46.60
12043;DHT22;6082;49.306;12.862;2023-07-08T15:29:15;31.60;47.00
12043;DHT22;6082;49.306;12.862;2023-07-08T15:31:42;31.60;46.50
12043;DHT22;6082;49.306;12.862;2023-07-08T15:34:17;31.60;47.40
12043;DHT22;6082;49.306;12.862;2023-07-08T15:36:43;31.50;45.80
12043;DHT22;6082;49.306;12.862;2023-07-08T15:39:09;31.30;43.20
12043;DHT22;6082;49.306;12.862;2023-07-08T15:41:36;31.20;44.50
12043;DHT22;6082;49.306;12.862;2023-07-08T15:44:04;31.00;43.00
12043;DHT22;6082;49.306;12.862;2023-07-08T15:46:37;30.90;44.50
12043;DHT22;6082;49.306;12.862;2023-07-08T15:49:25;30.80;46.20
12043;DHT22;6082;49.306;12.862;2023-07-08T15:51:56;30.70;47.00
12043;DHT22;6082;49.306;12.862;2023-07-08T15:54:21;30.60;47.90
12043;DHT22;6082;49.306;12.862;2023-07-08T15:56:49;30.60;47.30
12043;DHT22;6082;49.306;12.862;2023-07-08T15:59:28;30.50;45.00
12043;DHT22;6082;49.306;12.862;2023-07-08T16:01:54;30.50;46.80
12043;DHT22;6082;49.306;12.862;2023-07-08T16:04:25;30.40;46.80
12043;DHT22;6082;49.306;12.862;2023-07-08T16:06:51;30.50;48.70
12043;DHT22;6082;49.306;12.862;2023-07-08T16:09:17;30.40;48.30
12043;DHT22;6082;49.306;12.862;2023-07-08T16:11:43;30.40;47.90
12043;DHT22;6082;49.306;12.862;2023-07-08T16:14:14;30.40;47.50
12043;DHT22;6082;49.306;12.862;2023-07-08T16:16:40;30.30;48.70
12043;DHT22;6082;49.306;12.862;2023-07-08T16:19:11;30.30;49.50
12043;DHT22;6082;49.306;12.862;2023-07-08T16:21:38;30.30;48.70
12043;DHT22;6082;49.306;12.862;2023-07-08T16:24:04;30.30;50.60
12043;DHT22;6082;49.306;12.862;2023-07-08T16:26:30;30.40;50.80
12043;DHT22;6082;49.306;12.862;2023-07-08T16:28:56;30.40;51.70
12043;DHT22;6082;49.306;12.862;2023-07-08T16:31:25;30.50;52.10
12043;DHT22;6082;49.306;12.862;2023-07-08T16:33:54;30.50;50.20
12043;DHT22;6082;49.306;12.862;2023-07-08T16:36:27;30.50;49.70
12043;DHT22;6082;49.306;12.862;2023-07-08T16:38:53;30.50;50.90
12043;DHT22;6082;49.306;12.862;2023-07-08T16:41:24;30.50;51.40
12043;DHT22;6082;49.306;12.862;2023-07-08T16:43:50;30.50;49.50
12043;DHT22;6082;49.306;12.862;2023-07-08T16:46:20;30.50;48.20
12043;DHT22;6082;49.306;12.862;2023-07-08T16:48:46;30.50;47.60
12043;DHT22;6082;49.306;12.862;2023-07-08T16:51:14;30.50;47.30
12043;DHT22;6082;49.306;12.862;2023-07-08T16:53:42;30.40;47.50